Time;durP1;ratioP1;P1;durP2;ratioP2;P2;SDS_P1;SDS_P2;PMS_P1;PMS_P2;Temp;Humidity;BMP_temperature;BMP_pressure;BME280_temperature;BME280_humidity;BME280_pressure;Samples;Min_cycle;Max_cycle;Signal;HPM_P1;HPM_P2
2021/12/13 00:02:39;;;;;;;2.17;1.85;;;;;;;;;;5083203;28;20036;-85
2021/12/13 00:05:19;;;;;;;2.25;1.75;;;;;;;;;;5068203;28;20377;-85
2021/12/13 00:07:57;;;;;;;3.38;1.90;;;;;;;;;;5069072;28;20021;-86
2021/12/13 00:10:33;;;;;;;3.17;1.67;;;;;;;;;;5077439;28;20037;-86
2021/12/13 00:13:10;;;;;;;5.05;2.15;;;;;;;;;;5067018;28;20040;-83
2021/12/13 00:15:46;;;;;;;3.08;2.28;;;;;;;;;;5077417;28;20035;-85
2021/12/13 00:18:17;;;;;;;4.47;2.60;;;;;;;;;;5079101;28;20063;-84
2021/12/13 00:20:48;;;;;;;2.10;1.80;;;;;;;;;;5076504;28;20032;-83
2021/12/13 00:23:21;;;;;;;3.45;2.03;;;;;;;;;;5060295;28;20392;-85
2021/12/13 00:25:50;;;;;;;2.50;1.95;;;;;;;;;;5065021;28;20029;-85
2021/12/13 00:28:19;;;;;;;3.22;1.92;;;;;;;;;;5067246;28;20040;-85
2021/12/13 00:31:24;;;;;;;2.97;1.92;;;;;;;;;;5069947;28;20028;-86
2021/12/13 00:34:19;;;;;;;2.63;1.88;;;;;;;;;;5047283;28;20040;-85
2021/12/13 00:36:50;;;;;;;2.78;1.80;;;;;;;;;;5060430;28;20056;-85
2021/12/13 00:39:23;;;;;;;3.58;2.25;;;;;;;;;;5066090;28;20024;-84
2021/12/13 00:41:49;;;;;;;3.50;1.90;;;;;;;;;;5062631;28;20028;-85
2021/12/13 00:44:22;;;;;;;4.57;2.38;;;;;;;;;;5068866;28;20467;-84
2021/12/13 00:46:51;;;;;;;1.90;1.60;;;;;;;;;;5064041;28;20391;-85
2021/12/13 00:49:20;;;;;;;3.15;2.00;;;;;;;;;;5081595;28;20103;-85
2021/12/13 00:51:52;;;;;;;2.13;1.83;;;;;;;;;;5081604;28;20428;-84
2021/12/13 00:54:31;;;;;;;1.67;1.35;;;;;;;;;;5080362;28;20028;-85
2021/12/13 00:57:03;;;;;;;2.70;2.22;;;;;;;;;;5082873;28;20104;-85
2021/12/13 00:59:54;;;;;;;2.78;1.83;;;;;;;;;;5063920;28;20028;-85
2021/12/13 01:02:27;;;;;;;2.60;2.05;;;;;;;;;;5065749;28;20111;-84
2021/12/13 01:05:07;;;;;;;2.25;1.45;;;;;;;;;;5070451;28;20025;-85
2021/12/13 01:07:32;;;;;;;1.45;1.17;;;;;;;;;;5081860;28;20056;-87
2021/12/13 01:10:35;;;;;;;2.08;1.33;;;;;;;;;;5054782;28;20052;-84
2021/12/13 01:13:02;;;;;;;1.55;1.05;;;;;;;;;;5076092;28;20481;-86
2021/12/13 01:15:43;;;;;;;1.48;0.95;;;;;;;;;;5064937;28;20056;-86
2021/12/13 01:18:28;;;;;;;1.23;0.90;;;;;;;;;;5062419;28;20045;-86
2021/12/13 01:21:13;;;;;;;2.08;1.50;;;;;;;;;;5085554;28;20036;-86
2021/12/13 01:23:48;;;;;;;1.60;1.02;;;;;;;;;;5080758;28;20028;-86
2021/12/13 01:28:47;;;;;;;1.50;1.15;;;;;;;;;;5071014;28;20028;-85
2021/12/13 01:31:21;;;;;;;2.00;1.70;;;;;;;;;;5062774;28;20068;-86
2021/12/13 01:33:50;;;;;;;0.90;0.88;;;;;;;;;;5071480;28;20554;-86
2021/12/13 01:36:22;;;;;;;2.58;1.23;;;;;;;;;;5087226;28;20029;-86
2021/12/13 01:38:59;;;;;;;1.20;0.98;;;;;;;;;;5083719;28;20032;-86
2021/12/13 01:41:31;;;;;;;1.73;1.35;;;;;;;;;;5079323;28;20030;-85
2021/12/13 01:44:03;;;;;;;1.95;1.15;;;;;;;;;;5083317;28;20032;-86
2021/12/13 01:46:36;;;;;;;4.05;1.40;;;;;;;;;;5071330;28;20028;-86
2021/12/13 01:49:04;;;;;;;2.00;1.58;;;;;;;;;;5060621;28;20032;-87
2021/12/13 01:51:33;;;;;;;1.52;1.30;;;;;;;;;;5066785;28;20035;-86
2021/12/13 01:54:09;;;;;;;1.52;1.23;;;;;;;;;;5072294;28;20024;-86
2021/12/13 01:56:46;;;;;;;4.63;1.58;;;;;;;;;;5067515;28;20037;-85
2021/12/13 02:02:20;;;;;;;2.78;1.50;;;;;;;;;;5073097;28;20501;-86
2021/12/13 02:04:58;;;;;;;3.25;1.67;;;;;;;;;;5059397;28;20078;-86
2021/12/13 02:07:27;;;;;;;3.25;1.90;;;;;;;;;;5063623;28;20035;-84
2021/12/13 02:09:55;;;;;;;3.57;1.80;;;;;;;;;;5085274;28;20024;-86
2021/12/13 02:12:21;;;;;;;1.98;1.48;;;;;;;;;;5084527;28;20028;-86
2021/12/13 02:16:56;;;;;;;2.85;1.73;;;;;;;;;;5058142;28;20028;-86
2021/12/13 02:17:38;;;;;;;4.13;1.52;;;;;;;;;;5067424;28;20052;-88
2021/12/13 02:20:13;;;;;;;1.30;0.80;;;;;;;;;;5082759;28;20494;-87
2021/12/13 02:22:49;;;;;;;1.75;1.23;;;;;;;;;;5085583;28;20025;-86
2021/12/13 02:25:31;;;;;;;2.40;1.50;;;;;;;;;;5062080;28;20021;-86
2021/12/13 02:28:25;;;;;;;2.22;1.40;;;;;;;;;;5065211;28;20052;-87
2021/12/13 02:30:59;;;;;;;3.35;3.05;;;;;;;;;;5064475;28;20123;-86
2021/12/13 02:33:29;;;;;;;1.90;1.40;;;;;;;;;;5062681;28;20471;-87
2021/12/13 02:36:04;;;;;;;2.33;1.60;;;;;;;;;;5074571;28;20032;-85
2021/12/13 02:38:30;;;;;;;1.80;1.27;;;;;;;;;;5077861;28;20533;-87
2021/12/13 02:40:57;;;;;;;2.63;1.70;;;;;;;;;;5089018;28;20129;-87
2021/12/13 02:43:32;;;;;;;3.65;1.88;;;;;;;;;;5064418;28;20036;-86
2021/12/13 02:45:58;;;;;;;2.40;1.33;;;;;;;;;;5062361;28;20582;-87
2021/12/13 02:48:41;;;;;;;5.22;2.38;;;;;;;;;;5069785;28;20107;-86
2021/12/13 02:51:22;;;;;;;3.50;2.08;;;;;;;;;;5077918;28;20052;-85
2021/12/13 02:53:55;;;;;;;3.00;1.85;;;;;;;;;;5066985;28;20039;-87
2021/12/13 02:56:24;;;;;;;2.40;1.30;;;;;;;;;;5058374;28;20485;-86
2021/12/13 02:58:51;;;;;;;2.38;1.65;;;;;;;;;;5068842;28;20035;-85
2021/12/13 03:01:24;;;;;;;2.58;1.88;;;;;;;;;;5069419;28;20483;-85
2021/12/13 03:03:55;;;;;;;2.95;2.22;;;;;;;;;;5067558;28;20337;-86
2021/12/13 03:06:26;;;;;;;3.22;2.20;;;;;;;;;;5080818;28;20101;-86
2021/12/13 03:09:00;;;;;;;3.28;2.05;;;;;;;;;;5077275;28;20033;-85
2021/12/13 03:11:32;;;;;;;2.97;1.75;;;;;;;;;;5083570;28;20064;-86
2021/12/13 03:14:04;;;;;;;4.22;1.77;;;;;;;;;;5067988;28;20089;-86
2021/12/13 03:16:37;;;;;;;2.72;1.80;;;;;;;;;;5063555;28;20029;-86
2021/12/13 03:19:24;;;;;;;2.95;1.75;;;;;;;;;;5073924;28;20049;-86
2021/12/13 03:22:13;;;;;;;6.20;2.40;;;;;;;;;;5066275;28;20028;-86
2021/12/13 03:24:47;;;;;;;2.63;2.08;;;;;;;;;;5085481;28;20537;-86
2021/12/13 03:27:34;;;;;;;5.32;2.25;;;;;;;;;;5067445;28;20028;-86
2021/12/13 03:30:15;;;;;;;3.92;2.00;;;;;;;;;;5063172;28;20063;-86
2021/12/13 03:33:07;;;;;;;9.13;2.97;;;;;;;;;;5064873;28;20106;-86
2021/12/13 03:35:41;;;;;;;2.72;1.95;;;;;;;;;;5067645;28;20032;-86
2021/12/13 03:38:11;;;;;;;4.72;2.78;;;;;;;;;;5078677;28;20029;-86
2021/12/13 03:40:37;;;;;;;4.97;3.38;;;;;;;;;;5065467;28;20036;-86
2021/12/13 03:43:24;;;;;;;3.58;2.30;;;;;;;;;;5082152;28;20032;-87
2021/12/13 03:45:54;;;;;;;4.28;2.95;;;;;;;;;;5071895;28;20024;-87
2021/12/13 03:48:23;;;;;;;4.57;3.20;;;;;;;;;;5080606;28;20090;-86
2021/12/13 03:50:51;;;;;;;8.00;3.50;;;;;;;;;;5081051;28;20021;-86
2021/12/13 03:53:22;;;;;;;5.30;3.28;;;;;;;;;;5086490;28;20031;-87
2021/12/13 03:55:54;;;;;;;4.75;3.33;;;;;;;;;;5075202;28;20029;-88
2021/12/13 03:58:21;;;;;;;5.97;3.55;;;;;;;;;;5078579;28;20099;-87
2021/12/13 04:00:57;;;;;;;8.15;3.83;;;;;;;;;;5077229;28;20500;-87
2021/12/13 04:03:25;;;;;;;3.92;2.75;;;;;;;;;;5076412;28;20029;-86
2021/12/13 04:05:51;;;;;;;5.03;3.10;;;;;;;;;;5071903;28;20065;-87
2021/12/13 04:08:19;;;;;;;4.53;3.08;;;;;;;;;;5063111;28;20028;-86
2021/12/13 04:10:48;;;;;;;6.80;3.58;;;;;;;;;;5082943;28;20111;-89
2021/12/13 04:13:16;;;;;;;5.07;3.50;;;;;;;;;;5065428;28;20548;-88
2021/12/13 04:16:18;;;;;;;7.13;4.32;;;;;;;;;;5081342;28;20035;-88
2021/12/13 04:19:11;;;;;;;2.92;2.22;;;;;;;;;;5065330;28;20051;-87
2021/12/13 04:21:55;;;;;;;6.80;3.53;;;;;;;;;;5063672;28;20102;-87
2021/12/13 04:24:41;;;;;;;5.40;3.15;;;;;;;;;;5080503;28;20031;-86
2021/12/13 04:27:14;;;;;;;6.18;3.55;;;;;;;;;;5064809;28;20036;-87
2021/12/13 04:29:41;;;;;;;5.05;3.28;;;;;;;;;;5083763;28;20032;-87
2021/12/13 04:32:17;;;;;;;9.38;4.38;;;;;;;;;;5082132;28;20021;-86
2021/12/13 04:34:44;;;;;;;7.40;3.60;;;;;;;;;;5066378;28;20183;-86
2021/12/13 04:37:14;;;;;;;7.70;4.70;;;;;;;;;;5076661;28;20024;-86
2021/12/13 04:39:42;;;;;;;6.45;3.90;;;;;;;;;;5070082;28;20088;-88
2021/12/13 04:42:12;;;;;;;10.35;5.97;;;;;;;;;;5076714;28;20101;-87
2021/12/13 04:44:52;;;;;;;9.25;4.38;;;;;;;;;;5064795;28;20354;-87
2021/12/13 04:47:23;;;;;;;14.50;7.28;;;;;;;;;;5075446;28;20426;-86
2021/12/13 04:50:37;;;;;;;9.38;5.75;;;;;;;;;;5082526;28;20020;-86
2021/12/13 04:53:03;;;;;;;7.93;5.03;;;;;;;;;;5061953;28;20463;-87
2021/12/13 04:55:36;;;;;;;5.78;3.70;;;;;;;;;;5080248;28;20017;-86
2021/12/13 04:58:06;;;;;;;7.28;4.78;;;;;;;;;;5062936;28;20369;-87
2021/12/13 05:00:35;;;;;;;9.38;5.47;;;;;;;;;;5082745;28;20409;-86
2021/12/13 05:03:02;;;;;;;7.65;3.97;;;;;;;;;;5064371;28;20166;-86
2021/12/13 05:05:30;;;;;;;10.25;5.32;;;;;;;;;;5075460;28;20432;-84
2021/12/13 05:07:56;;;;;;;10.23;6.38;;;;;;;;;;5082341;28;20480;-85
2021/12/13 05:10:25;;;;;;;7.85;4.85;;;;;;;;;;5073895;28;20537;-86
2021/12/13 05:13:05;;;;;;;8.18;4.03;;;;;;;;;;5081854;28;20028;-86
2021/12/13 05:15:31;;;;;;;;;;;;;;;;;;5068300;28;20039;-86
2021/12/13 05:18:01;;;;;;;6.88;3.45;;;;;;;;;;5063985;28;20364;-86
2021/12/13 05:20:32;;;;;;;9.55;5.28;;;;;;;;;;5085307;28;20039;-86
2021/12/13 05:23:06;;;;;;;10.48;5.07;;;;;;;;;;5070703;28;20033;-87
2021/12/13 05:25:39;;;;;;;7.63;4.53;;;;;;;;;;5083772;28;20029;-87
2021/12/13 05:28:19;;;;;;;10.40;6.35;;;;;;;;;;5083292;28;20032;-87
2021/12/13 05:30:54;;;;;;;7.93;4.18;;;;;;;;;;5071384;28;20048;-84
2021/12/13 05:33:21;;;;;;;15.68;8.65;;;;;;;;;;5063782;28;20049;-83
2021/12/13 05:35:51;;;;;;;9.82;5.38;;;;;;;;;;5078732;28;20372;-84
2021/12/13 05:38:42;;;;;;;14.23;8.25;;;;;;;;;;5058658;28;20020;-82
2021/12/13 05:41:11;;;;;;;16.63;8.45;;;;;;;;;;5068613;28;20077;-84
2021/12/13 05:43:45;;;;;;;10.27;6.53;;;;;;;;;;5072265;28;20071;-83
2021/12/13 05:46:19;;;;;;;6.68;4.43;;;;;;;;;;5080977;28;20379;-82
2021/12/13 05:49:03;;;;;;;10.32;5.63;;;;;;;;;;5067796;28;20032;-82
2021/12/13 05:51:43;;;;;;;9.35;4.80;;;;;;;;;;5070635;28;20025;-86
2021/12/13 05:54:14;;;;;;;9.15;5.90;;;;;;;;;;5063783;28;20025;-85
2021/12/13 05:56:45;;;;;;;8.52;4.28;;;;;;;;;;5085005;28;20384;-85
2021/12/13 05:59:16;;;;;;;10.75;5.32;;;;;;;;;;5084443;28;20017;-83
2021/12/13 06:02:16;;;;;;;13.32;6.90;;;;;;;;;;5068873;28;20029;-82
2021/12/13 06:04:55;;;;;;;7.13;4.28;;;;;;;;;;5020470;28;20051;-83
2021/12/13 06:07:24;;;;;;;6.43;4.68;;;;;;;;;;5066704;28;20481;-81
2021/12/13 06:09:53;;;;;;;9.20;4.80;;;;;;;;;;5071266;28;20503;-84
2021/12/13 06:12:28;;;;;;;7.93;5.80;;;;;;;;;;5070464;28;20471;-83
2021/12/13 06:14:54;;;;;;;10.73;5.57;;;;;;;;;;5065417;28;20035;-84
2021/12/13 06:17:28;;;;;;;11.20;5.28;;;;;;;;;;5067624;28;20049;-84
2021/12/13 06:20:02;;;;;;;12.07;7.35;;;;;;;;;;5069741;28;20036;-84
2021/12/13 06:22:32;;;;;;;8.23;4.32;;;;;;;;;;5067043;28;20039;-85
2021/12/13 06:25:06;;;;;;;12.07;6.00;;;;;;;;;;5065429;28;20094;-84
2021/12/13 06:27:54;;;;;;;9.85;5.10;;;;;;;;;;5070090;28;20056;-83
2021/12/13 06:30:27;;;;;;;13.27;6.80;;;;;;;;;;5069106;28;20039;-82
2021/12/13 06:33:03;;;;;;;9.25;5.40;;;;;;;;;;5071483;28;20033;-87
2021/12/13 06:35:50;;;;;;;9.77;5.60;;;;;;;;;;5084356;28;20039;-83
2021/12/13 06:38:19;;;;;;;7.70;4.50;;;;;;;;;;5064183;28;20033;-84
2021/12/13 06:40:53;;;;;;;6.10;4.13;;;;;;;;;;5086091;28;20488;-83
2021/12/13 06:43:35;;;;;;;7.30;4.45;;;;;;;;;;5061499;28;20530;-85
2021/12/13 06:46:26;;;;;;;8.70;5.15;;;;;;;;;;5068142;28;20428;-84
2021/12/13 06:49:00;;;;;;;7.30;3.97;;;;;;;;;;5047408;28;20040;-86
2021/12/13 06:51:51;;;;;;;6.35;4.97;;;;;;;;;;5067952;28;20012;-85
2021/12/13 06:54:42;;;;;;;7.20;4.45;;;;;;;;;;5078008;28;20417;-85
2021/12/13 06:57:41;;;;;;;5.35;3.80;;;;;;;;;;5056572;28;20028;-84
2021/12/13 07:00:22;;;;;;;8.60;4.22;;;;;;;;;;5068944;28;20068;-83
2021/12/13 07:02:47;;;;;;;5.60;4.15;;;;;;;;;;5073619;28;20037;-82
2021/12/13 07:05:31;;;;;;;9.27;5.63;;;;;;;;;;5070894;28;20029;-83
2021/12/13 07:08:31;;;;;;;4.43;3.33;;;;;;;;;;5071292;28;20040;-83
2021/12/13 07:11:06;;;;;;;6.43;4.22;;;;;;;;;;5060188;28;20028;-81
2021/12/13 07:14:00;;;;;;;7.18;4.75;;;;;;;;;;5067401;28;20037;-81
2021/12/13 07:16:32;;;;;;;5.43;3.80;;;;;;;;;;5065510;28;20055;-82
2021/12/13 07:19:11;;;;;;;10.98;6.55;;;;;;;;;;5067268;28;20101;-82
2021/12/13 07:21:54;;;;;;;5.25;3.97;;;;;;;;;;5062645;28;20125;-82
2021/12/13 07:24:32;;;;;;;7.05;4.93;;;;;;;;;;5067867;28;20373;-81
2021/12/13 07:27:13;;;;;;;6.05;4.25;;;;;;;;;;5065904;28;20060;-81
2021/12/13 07:30:07;;;;;;;7.47;5.15;;;;;;;;;;5084012;28;20039;-82
2021/12/13 07:32:39;;;;;;;7.57;4.95;;;;;;;;;;5065995;28;20025;-81
2021/12/13 07:35:04;;;;;;;8.15;5.05;;;;;;;;;;5066727;28;20035;-83
2021/12/13 07:37:45;;;;;;;5.22;4.13;;;;;;;;;;5065277;28;20388;-81
2021/12/13 07:40:31;;;;;;;6.72;4.43;;;;;;;;;;5074828;28;20029;-85
2021/12/13 07:43:15;;;;;;;8.52;6.10;;;;;;;;;;5066259;28;20077;-83
2021/12/13 07:46:09;;;;;;;7.30;5.05;;;;;;;;;;5066413;28;20025;-83
2021/12/13 07:48:41;;;;;;;8.82;5.07;;;;;;;;;;5074624;28;20025;-82
2021/12/13 07:51:25;;;;;;;8.07;5.43;;;;;;;;;;5066351;28;20031;-83
2021/12/13 07:54:04;;;;;;;10.18;4.97;;;;;;;;;;5060230;28;20035;-82
2021/12/13 07:56:36;;;;;;;10.50;6.47;;;;;;;;;;5061463;28;20487;-83
2021/12/13 07:59:11;;;;;;;10.02;5.70;;;;;;;;;;5059947;28;20036;-83
2021/12/13 08:01:51;;;;;;;9.82;6.68;;;;;;;;;;5059971;28;20559;-84
2021/12/13 08:04:23;;;;;;;8.73;5.50;;;;;;;;;;5059420;28;20047;-82
2021/12/13 08:07:10;;;;;;;9.02;4.85;;;;;;;;;;5067586;28;20391;-83
2021/12/13 08:09:50;;;;;;;7.57;4.20;;;;;;;;;;5060650;28;20032;-82
2021/12/13 08:12:39;;;;;;;7.60;4.75;;;;;;;;;;5068935;28;20603;-83
2021/12/13 08:15:15;;;;;;;8.93;5.57;;;;;;;;;;5062231;28;20031;-83
2021/12/13 08:18:05;;;;;;;8.10;4.85;;;;;;;;;;5055576;28;20045;-83
2021/12/13 08:20:32;;;;;;;;;;;;;;;;;;5057630;28;20033;-82
2021/12/13 08:23:01;;;;;;;10.60;4.95;;;;;;;;;;5064577;28;19913;-84
2021/12/13 08:25:34;;;;;;;7.97;4.40;;;;;;;;;;5074517;28;20025;-83
2021/12/13 08:28:01;;;;;;;7.20;4.35;;;;;;;;;;5067829;28;20020;-84
2021/12/13 08:30:34;;;;;;;8.57;5.88;;;;;;;;;;5065150;28;20021;-82
2021/12/13 08:33:07;;;;;;;11.32;7.03;;;;;;;;;;5073003;28;20502;-83
2021/12/13 08:35:54;;;;;;;17.40;8.75;;;;;;;;;;5063305;28;20021;-82
2021/12/13 08:38:35;;;;;;;10.60;8.18;;;;;;;;;;5064424;28;20073;-83
2021/12/13 08:41:23;;;;;;;9.95;5.03;;;;;;;;;;5064345;28;20031;-83
2021/12/13 08:44:17;;;;;;;13.43;6.63;;;;;;;;;;5063585;28;20040;-82
2021/12/13 08:46:52;;;;;;;12.88;6.80;;;;;;;;;;5058310;28;20552;-83
2021/12/13 08:49:17;;;;;;;9.70;5.60;;;;;;;;;;5068457;28;20028;-83
2021/12/13 08:52:27;;;;;;;12.93;6.47;;;;;;;;;;5064705;28;20035;-82
2021/12/13 08:55:11;;;;;;;18.27;7.88;;;;;;;;;;5055382;28;20040;-82
2021/12/13 08:57:58;;;;;;;17.98;10.05;;;;;;;;;;5062096;28;20029;-82
2021/12/13 09:00:48;;;;;;;14.82;7.53;;;;;;;;;;5064947;28;20497;-82
2021/12/13 09:03:24;;;;;;;13.68;7.53;;;;;;;;;;5065922;28;20025;-81
2021/12/13 09:06:10;;;;;;;19.95;10.35;;;;;;;;;;5067326;28;20464;-83
2021/12/13 09:08:56;;;;;;;17.10;9.20;;;;;;;;;;5061064;28;20023;-81
2021/12/13 09:11:39;;;;;;;12.18;6.88;;;;;;;;;;5059511;28;20357;-81
2021/12/13 09:14:07;;;;;;;9.23;6.18;;;;;;;;;;5057123;28;20056;-82
2021/12/13 09:17:06;;;;;;;9.82;6.85;;;;;;;;;;5062827;28;20033;-81
2021/12/13 09:19:36;;;;;;;17.75;6.25;;;;;;;;;;5064642;28;20049;-82
2021/12/13 09:22:07;;;;;;;8.70;5.18;;;;;;;;;;5074181;28;20037;-80
2021/12/13 09:24:39;;;;;;;13.48;7.63;;;;;;;;;;5059568;28;20025;-82
2021/12/13 09:27:08;;;;;;;13.50;7.65;;;;;;;;;;5083271;28;20036;-81
2021/12/13 09:30:05;;;;;;;8.75;5.65;;;;;;;;;;5063274;28;20028;-81
2021/12/13 09:32:38;;;;;;;12.15;6.60;;;;;;;;;;5065317;28;20044;-81
2021/12/13 09:35:19;;;;;;;10.32;6.50;;;;;;;;;;5063606;28;20028;-81
2021/12/13 09:37:44;;;;;;;14.00;7.00;;;;;;;;;;5066753;28;20104;-82
2021/12/13 09:40:11;;;;;;;9.38;6.53;;;;;;;;;;5066588;28;20119;-82
2021/12/13 09:42:48;;;;;;;15.57;7.47;;;;;;;;;;5065445;28;20059;-82
2021/12/13 09:45:27;;;;;;;14.98;9.15;;;;;;;;;;5064103;28;20570;-83
2021/12/13 09:47:54;;;;;;;12.15;8.13;;;;;;;;;;5066957;28;20028;-83
2021/12/13 09:50:24;;;;;;;12.68;6.47;;;;;;;;;;5083244;28;20487;-83
2021/12/13 09:52:57;;;;;;;11.00;7.10;;;;;;;;;;5070799;28;20098;-83
2021/12/13 09:55:31;;;;;;;13.77;9.00;;;;;;;;;;5066471;28;20498;-83
2021/12/13 09:58:13;;;;;;;11.35;7.35;;;;;;;;;;5072923;28;20043;-83
2021/12/13 10:00:45;;;;;;;6.80;5.10;;;;;;;;;;5065480;28;20082;-82
2021/12/13 10:03:20;;;;;;;21.30;8.30;;;;;;;;;;5085550;28;20475;-82
2021/12/13 10:05:49;;;;;;;15.63;10.02;;;;;;;;;;5070410;28;20029;-82
2021/12/13 10:08:22;;;;;;;12.90;7.85;;;;;;;;;;5062193;28;20029;-83
2021/12/13 10:11:02;;;;;;;14.50;7.47;;;;;;;;;;5067204;28;20028;-83
2021/12/13 10:13:35;;;;;;;9.85;6.47;;;;;;;;;;5082660;28;20028;-83
2021/12/13 10:16:07;;;;;;;10.60;6.85;;;;;;;;;;5060552;28;20085;-82
2021/12/13 10:18:35;;;;;;;13.07;7.25;;;;;;;;;;5064066;28;20120;-83
2021/12/13 10:21:14;;;;;;;11.88;7.68;;;;;;;;;;5084199;28;20032;-83
2021/12/13 10:23:48;;;;;;;14.95;8.70;;;;;;;;;;5072512;28;20039;-83
2021/12/13 10:26:15;;;;;;;14.38;9.88;;;;;;;;;;5073237;28;20083;-82
2021/12/13 10:28:52;;;;;;;11.45;7.78;;;;;;;;;;5073384;28;20503;-83
2021/12/13 10:31:24;;;;;;;27.83;13.25;;;;;;;;;;5088550;28;20021;-83
2021/12/13 10:33:50;;;;;;;13.95;8.60;;;;;;;;;;5063356;28;20107;-83
2021/12/13 10:36:17;;;;;;;14.40;9.25;;;;;;;;;;5073201;28;20024;-83
2021/12/13 10:38:56;;;;;;;15.60;8.10;;;;;;;;;;5065874;28;20040;-83
2021/12/13 10:41:43;;;;;;;13.73;8.60;;;;;;;;;;5066992;28;20439;-83
2021/12/13 10:44:14;;;;;;;18.58;11.40;;;;;;;;;;5072353;28;20479;-82
2021/12/13 10:46:43;;;;;;;16.42;9.95;;;;;;;;;;5068131;28;20048;-82
2021/12/13 10:49:21;;;;;;;12.68;9.93;;;;;;;;;;5071418;28;20528;-82
2021/12/13 10:51:57;;;;;;;12.98;8.63;;;;;;;;;;5060646;28;20033;-82
2021/12/13 10:54:32;;;;;;;13.95;8.35;;;;;;;;;;5064350;28;20459;-83
2021/12/13 10:57:04;;;;;;;14.52;8.80;;;;;;;;;;5070340;28;20021;-83
2021/12/13 10:59:33;;;;;;;11.30;6.63;;;;;;;;;;5067892;28;20028;-83
2021/12/13 11:02:03;;;;;;;15.75;10.02;;;;;;;;;;5058123;28;20025;-82
2021/12/13 11:04:40;;;;;;;15.52;8.32;;;;;;;;;;5064443;28;20032;-83
2021/12/13 11:07:09;;;;;;;17.20;10.85;;;;;;;;;;5067327;28;20037;-83
2021/12/13 11:09:38;;;;;;;15.82;9.02;;;;;;;;;;5067631;28;20063;-83
2021/12/13 11:12:06;;;;;;;25.17;12.20;;;;;;;;;;5079420;28;20457;-84
2021/12/13 11:14:36;;;;;;;16.05;10.50;;;;;;;;;;5062654;28;20052;-83
2021/12/13 11:17:07;;;;;;;24.05;13.32;;;;;;;;;;5063787;28;20089;-82
2021/12/13 11:19:36;;;;;;;23.65;12.40;;;;;;;;;;5070779;28;20037;-82
2021/12/13 11:22:09;;;;;;;17.80;9.18;;;;;;;;;;5080495;28;20036;-81
2021/12/13 11:24:37;;;;;;;18.95;11.35;;;;;;;;;;5064053;28;20107;-82
2021/12/13 11:27:11;;;;;;;16.55;10.82;;;;;;;;;;5075741;28;20400;-83
2021/12/13 11:29:41;;;;;;;15.32;9.23;;;;;;;;;;5066842;28;20379;-83
2021/12/13 11:32:34;;;;;;;15.75;9.65;;;;;;;;;;5064037;28;20368;-82
2021/12/13 11:35:15;;;;;;;16.35;9.57;;;;;;;;;;5068198;28;20059;-82
2021/12/13 11:38:10;;;;;;;12.82;8.57;;;;;;;;;;5062711;28;20030;-82
2021/12/13 11:40:38;;;;;;;13.70;7.93;;;;;;;;;;5062827;28;20029;-81
2021/12/13 11:43:41;;;;;;;13.63;9.73;;;;;;;;;;5077101;28;20025;-81
2021/12/13 11:46:27;;;;;;;16.40;10.73;;;;;;;;;;5063650;28;20027;-81
2021/12/13 11:49:11;;;;;;;20.70;11.82;;;;;;;;;;5078996;28;20032;-82
2021/12/13 11:51:54;;;;;;;14.73;8.77;;;;;;;;;;5074593;28;20256;-81
2021/12/13 11:54:44;;;;;;;11.73;7.90;;;;;;;;;;5083593;28;20039;-82
2021/12/13 11:57:27;;;;;;;;;;;;;;;;;;5065785;28;20032;-82
2021/12/13 12:00:11;;;;;;;13.00;7.78;;;;;;;;;;5063307;28;19916;-82
2021/12/13 12:02:48;;;;;;;13.35;9.88;;;;;;;;;;5060211;28;20119;-81
2021/12/13 12:05:47;;;;;;;17.02;11.05;;;;;;;;;;5063520;28;20079;-81
2021/12/13 12:08:46;;;;;;;14.85;10.60;;;;;;;;;;5057127;28;20120;-81
2021/12/13 12:11:35;;;;;;;12.52;8.50;;;;;;;;;;5068405;28;20025;-81
2021/12/13 12:14:06;;;;;;;11.50;7.05;;;;;;;;;;5079599;28;20491;-82
2021/12/13 12:16:53;;;;;;;14.77;9.18;;;;;;;;;;5066766;28;20024;-80
2021/12/13 12:19:32;;;;;;;16.63;10.75;;;;;;;;;;5068645;28;20518;-80
2021/12/13 12:22:27;;;;;;;17.63;10.40;;;;;;;;;;5075804;28;20043;-82
2021/12/13 12:24:59;;;;;;;12.75;9.15;;;;;;;;;;5066470;28;20093;-81
2021/12/13 12:27:32;;;;;;;12.82;8.02;;;;;;;;;;5064173;28;20032;-81
2021/12/13 12:30:01;;;;;;;16.98;11.63;;;;;;;;;;5076296;28;20036;-81
2021/12/13 12:32:34;;;;;;;10.83;7.50;;;;;;;;;;5067110;28;20036;-82
2021/12/13 12:35:04;;;;;;;16.20;11.18;;;;;;;;;;5060476;28;20052;-81
2021/12/13 12:37:32;;;;;;;13.27;8.68;;;;;;;;;;5064821;28;20735;-81
2021/12/13 12:40:10;;;;;;;11.68;7.20;;;;;;;;;;5059365;28;20047;-81
2021/12/13 12:42:57;;;;;;;15.05;9.57;;;;;;;;;;5068067;28;20040;-81
2021/12/13 12:45:39;;;;;;;13.38;9.80;;;;;;;;;;5076394;28;20545;-80
2021/12/13 12:48:06;;;;;;;14.13;8.98;;;;;;;;;;5061804;28;20036;-81
2021/12/13 12:50:38;;;;;;;16.52;10.88;;;;;;;;;;5066156;28;20086;-81
2021/12/13 12:53:04;;;;;;;14.75;10.27;;;;;;;;;;5061334;28;20513;-81
2021/12/13 12:55:37;;;;;;;21.05;12.10;;;;;;;;;;5056289;28;20028;-80
2021/12/13 12:58:10;;;;;;;16.17;9.45;;;;;;;;;;5063525;28;20025;-81
2021/12/13 13:00:37;;;;;;;17.38;9.25;;;;;;;;;;5079059;28;20052;-81
2021/12/13 13:03:03;;;;;;;18.95;10.88;;;;;;;;;;5076851;28;20031;-81
2021/12/13 13:05:31;;;;;;;18.40;10.95;;;;;;;;;;5067114;28;20375;-81
2021/12/13 13:07:56;;;;;;;15.27;9.15;;;;;;;;;;5062448;28;20029;-81
2021/12/13 13:10:36;;;;;;;14.77;10.20;;;;;;;;;;5055873;28;20081;-81
2021/12/13 13:13:10;;;;;;;20.02;12.60;;;;;;;;;;5065791;28;20024;-81
2021/12/13 13:15:45;;;;;;;20.77;11.60;;;;;;;;;;5062080;28;20032;-82
2021/12/13 13:18:33;;;;;;;17.30;10.18;;;;;;;;;;5079030;28;20491;-81
2021/12/13 13:21:04;;;;;;;18.58;11.68;;;;;;;;;;5067137;28;20045;-81
2021/12/13 13:23:41;;;;;;;19.48;13.65;;;;;;;;;;5067007;28;20032;-81
2021/12/13 13:26:08;;;;;;;19.90;10.95;;;;;;;;;;5070565;28;20035;-81
2021/12/13 13:28:46;;;;;;;17.45;10.95;;;;;;;;;;5072096;28;20028;-81
2021/12/13 13:31:18;;;;;;;16.08;10.38;;;;;;;;;;5071969;28;20479;-80
2021/12/13 13:33:48;;;;;;;17.30;10.07;;;;;;;;;;5076276;28;20063;-80
2021/12/13 13:36:17;;;;;;;16.77;9.40;;;;;;;;;;5069935;28;20111;-84
2021/12/13 13:38:43;;;;;;;15.98;9.55;;;;;;;;;;5072544;28;20417;-82
2021/12/13 13:41:18;;;;;;;14.80;9.48;;;;;;;;;;5067005;28;20036;-82
2021/12/13 13:43:43;;;;;;;13.52;9.88;;;;;;;;;;5065704;28;20104;-83
2021/12/13 13:46:09;;;;;;;16.92;11.38;;;;;;;;;;5072521;28;20124;-81
2021/12/13 13:48:39;;;;;;;15.55;10.73;;;;;;;;;;5084046;28;20031;-83
2021/12/13 13:51:09;;;;;;;15.52;11.05;;;;;;;;;;5062402;28;20028;-82
2021/12/13 13:53:39;;;;;;;;;;;;;;;;;;5065512;28;20048;-83
2021/12/13 13:56:07;;;;;;;;;;;;;;;;;;5084871;28;19920;-84
2021/12/13 13:58:36;;;;;;;15.18;8.52;;;;;;;;;;5073298;28;20413;-84
2021/12/13 14:01:11;;;;;;;16.55;10.23;;;;;;;;;;5059931;28;20024;-84
2021/12/13 14:03:43;;;;;;;16.05;10.13;;;;;;;;;;5069751;28;20020;-83
2021/12/13 14:06:12;;;;;;;15.15;11.98;;;;;;;;;;5061326;28;20016;-84
2021/12/13 14:08:41;;;;;;;8.47;4.90;;;;;;;;;;5067025;28;20093;-85
2021/12/13 14:11:17;;;;;;;19.35;10.73;;;;;;;;;;5081997;28;20488;-86
2021/12/13 14:13:45;;;;;;;16.58;10.52;;;;;;;;;;5061828;28;20033;-87
2021/12/13 14:16:20;;;;;;;13.93;9.55;;;;;;;;;;5065945;28;20021;-84
2021/12/13 14:18:47;;;;;;;15.95;8.23;;;;;;;;;;5063053;28;20109;-85
2021/12/13 14:21:15;;;;;;;20.05;11.30;;;;;;;;;;5066700;28;20048;-85
2021/12/13 14:23:49;;;;;;;29.73;17.67;;;;;;;;;;5083289;28;20178;-86
2021/12/13 14:26:19;;;;;;;36.05;17.83;;;;;;;;;;5084070;28;20025;-84
2021/12/13 14:29:01;;;;;;;21.17;11.85;;;;;;;;;;5067339;28;20076;-83
2021/12/13 14:31:31;;;;;;;15.73;9.75;;;;;;;;;;5083837;28;20024;-84
2021/12/13 14:34:01;;;;;;;14.90;9.45;;;;;;;;;;5066576;28;20530;-84
2021/12/13 14:36:33;;;;;;;15.50;10.02;;;;;;;;;;5085021;28;20024;-85
2021/12/13 14:39:07;;;;;;;15.82;10.30;;;;;;;;;;5063208;28;20067;-84
2021/12/13 14:41:37;;;;;;;20.08;12.10;;;;;;;;;;5078578;28;20027;-83
2021/12/13 14:44:05;;;;;;;;;;;;;;;;;;5070908;28;20037;-85
2021/12/13 14:46:39;;;;;;;17.52;10.00;;;;;;;;;;5067863;28;19970;-85
2021/12/13 14:49:13;;;;;;;24.23;11.95;;;;;;;;;;5085117;28;20027;-84
2021/12/13 14:51:49;;;;;;;16.40;9.30;;;;;;;;;;5066927;28;20020;-84
2021/12/13 14:54:18;;;;;;;21.38;15.65;;;;;;;;;;5082024;28;20490;-84
2021/12/13 14:56:51;;;;;;;16.98;11.00;;;;;;;;;;5083998;28;20047;-84
2021/12/13 14:59:17;;;;;;;18.20;11.23;;;;;;;;;;5067717;28;20029;-84
2021/12/13 15:01:44;;;;;;;25.35;13.35;;;;;;;;;;5066831;28;20476;-86
2021/12/13 15:04:24;;;;;;;16.98;11.35;;;;;;;;;;5080726;28;20033;-80
2021/12/13 15:06:56;;;;;;;19.83;10.90;;;;;;;;;;5072635;28;20112;-80
2021/12/13 15:09:28;;;;;;;21.17;13.05;;;;;;;;;;5079713;28;20602;-79
2021/12/13 15:12:04;;;;;;;16.45;10.18;;;;;;;;;;5069619;28;20028;-80
2021/12/13 15:14:54;;;;;;;26.00;13.93;;;;;;;;;;5077480;28;20548;-81
2021/12/13 15:17:50;;;;;;;13.20;8.52;;;;;;;;;;5065630;28;20472;-81
2021/12/13 15:20:21;;;;;;;18.70;10.73;;;;;;;;;;5071418;28;20083;-80
2021/12/13 15:22:53;;;;;;;14.63;10.80;;;;;;;;;;5071085;28;20093;-81
2021/12/13 15:25:26;;;;;;;11.48;7.63;;;;;;;;;;5068325;28;20365;-81
2021/12/13 15:27:52;;;;;;;22.45;11.05;;;;;;;;;;5070338;28;20854;-80
2021/12/13 15:30:23;;;;;;;19.30;11.70;;;;;;;;;;5070744;28;20177;-81
2021/12/13 15:32:53;;;;;;;25.05;13.73;;;;;;;;;;5071018;28;20383;-82